createdAt,value
2022-11-30T00:01:30.990Z,-6.13
2022-11-30T00:03:58.545Z,-6.11
2022-11-30T00:06:26.147Z,-6.13
2022-11-30T00:08:55.507Z,-6.13
2022-11-30T00:11:25.566Z,-6.20
2022-11-30T00:13:53.263Z,-6.24
2022-11-30T00:16:21.196Z,-6.28
2022-11-30T00:18:48.929Z,-6.34
2022-11-30T00:21:16.479Z,-6.37
2022-11-30T00:23:45.721Z,-6.36
2022-11-30T00:26:16.715Z,-6.36
2022-11-30T00:28:45.998Z,-6.37
2022-11-30T00:31:16.557Z,-6.31
2022-11-30T00:33:44.874Z,-6.35
2022-11-30T00:36:15.934Z,-6.42
2022-11-30T00:38:44.486Z,-6.46
2022-11-30T00:41:14.780Z,-6.49
2022-11-30T00:43:42.486Z,-6.48
2022-11-30T00:46:10.751Z,-6.41
2022-11-30T00:48:39.519Z,-6.42
2022-11-30T00:51:08.358Z,-6.45
2022-11-30T00:53:36.125Z,-6.39
2022-11-30T00:56:04.264Z,-6.49
2022-11-30T00:58:31.728Z,-6.49
2022-11-30T01:01:01.530Z,-6.62
2022-11-30T01:03:29.345Z,-6.62
2022-11-30T01:06:02.832Z,-6.63
2022-11-30T01:08:30.473Z,-6.67
2022-11-30T01:11:05.976Z,-6.65
2022-11-30T01:13:33.539Z,-6.61
2022-11-30T01:16:01.228Z,-6.56
2022-11-30T01:18:28.784Z,-6.58
2022-11-30T01:20:56.329Z,-6.63
2022-11-30T01:23:23.812Z,-6.68
2022-11-30T01:25:55.651Z,-6.64
2022-11-30T01:28:23.240Z,-6.65
2022-11-30T01:31:08.249Z,-6.59
2022-11-30T01:33:36.328Z,-6.59
2022-11-30T01:36:12.302Z,-6.60
2022-11-30T01:38:51.111Z,-6.48
2022-11-30T01:41:31.678Z,-6.59
2022-11-30T01:44:05.079Z,-6.54
2022-11-30T01:47:10.256Z,-6.46
2022-11-30T01:49:51.758Z,-6.54
2022-11-30T01:52:19.260Z,-6.53
2022-11-30T01:54:54.428Z,-6.52
2022-11-30T01:57:24.928Z,-6.54
2022-11-30T01:59:54.915Z,-6.63
2022-11-30T02:02:32.183Z,-6.65
2022-11-30T02:05:00.601Z,-6.68
2022-11-30T02:07:28.384Z,-6.65
2022-11-30T02:09:56.006Z,-6.62
2022-11-30T02:13:01.706Z,-6.56
2022-11-30T02:16:07.514Z,-6.53
2022-11-30T02:18:41.130Z,-6.56
2022-11-30T02:21:33.269Z,-6.62
2022-11-30T02:24:23.310Z,-6.54
2022-11-30T02:27:02.859Z,-6.54
2022-11-30T02:29:35.120Z,-6.64
2022-11-30T02:32:08.115Z,-6.62
2022-11-30T02:34:38.234Z,-6.61
2022-11-30T02:37:08.060Z,-6.69
2022-11-30T02:39:35.729Z,-6.68
2022-11-30T02:42:03.420Z,-6.73
2022-11-30T02:44:31.495Z,-6.73
2022-11-30T02:47:05.019Z,-6.67
2022-11-30T02:49:38.475Z,-6.77
2022-11-30T02:52:08.190Z,-6.77
2022-11-30T02:54:35.827Z,-6.82
2022-11-30T02:57:03.385Z,-6.81
2022-11-30T02:59:31.020Z,-6.83
2022-11-30T03:01:58.597Z,-6.88
2022-11-30T03:04:26.205Z,-6.95
2022-11-30T03:06:53.686Z,-7.00
2022-11-30T03:09:21.247Z,-6.96
2022-11-30T03:11:48.748Z,-7.07
2022-11-30T03:14:16.203Z,-7.02
2022-11-30T03:16:44.342Z,-7.05
2022-11-30T03:19:12.692Z,-7.12
2022-11-30T03:21:40.226Z,-7.15
2022-11-30T03:24:08.106Z,-7.17
2022-11-30T03:26:35.747Z,-7.22
2022-11-30T03:29:03.506Z,-7.28
2022-11-30T03:31:31.094Z,-7.28
2022-11-30T03:33:58.700Z,-7.30
2022-11-30T03:36:26.310Z,-7.35
2022-11-30T03:38:53.739Z,-7.42
2022-11-30T03:41:21.319Z,-7.43
2022-11-30T03:43:49.891Z,-7.48
2022-11-30T03:46:17.918Z,-7.52
2022-11-30T03:48:45.618Z,-7.57
2022-11-30T03:51:14.403Z,-7.49
2022-11-30T03:53:42.395Z,-7.49
2022-11-30T03:56:11.791Z,-7.50
2022-11-30T03:58:39.344Z,-7.49
2022-11-30T04:01:13.412Z,-7.53
2022-11-30T04:03:41.695Z,-7.51
2022-11-30T04:06:10.672Z,-7.39
2022-11-30T04:08:39.052Z,-7.43
2022-11-30T04:11:07.685Z,-7.35
2022-11-30T04:13:37.271Z,-7.32
2022-11-30T04:16:06.604Z,-7.38
2022-11-30T04:18:36.574Z,-7.42
2022-11-30T04:21:05.172Z,-7.49
2022-11-30T04:23:35.550Z,-7.42
2022-11-30T04:26:08.588Z,-7.43
2022-11-30T04:28:36.440Z,-7.47
2022-11-30T04:31:04.717Z,-7.49
2022-11-30T04:33:32.439Z,-7.50
2022-11-30T04:36:02.811Z,-7.49
2022-11-30T04:38:31.374Z,-7.46
2022-11-30T04:40:58.977Z,-7.45
2022-11-30T04:43:27.635Z,-7.49
2022-11-30T04:45:55.075Z,-7.47
2022-11-30T04:48:22.586Z,-7.49
2022-11-30T04:50:50.093Z,-7.48
2022-11-30T04:53:17.616Z,-7.51
2022-11-30T04:55:45.148Z,-7.52
2022-11-30T04:58:12.624Z,-7.48
2022-11-30T05:00:40.250Z,-7.49
2022-11-30T05:03:08.067Z,-7.51
2022-11-30T05:05:35.737Z,-7.51
2022-11-30T05:08:03.318Z,-7.47
2022-11-30T05:10:33.898Z,-7.45
2022-11-30T05:13:01.725Z,-7.43
2022-11-30T05:15:29.398Z,-7.43
2022-11-30T05:18:01.337Z,-7.43
2022-11-30T05:20:29.541Z,-7.46
2022-11-30T05:22:57.899Z,-7.50
2022-11-30T05:25:25.485Z,-7.51
2022-11-30T05:27:53.096Z,-7.52
2022-11-30T05:30:20.716Z,-7.53
2022-11-30T05:32:48.334Z,-7.56
2022-11-30T05:35:16.006Z,-7.57
2022-11-30T05:37:43.475Z,-7.64
2022-11-30T05:40:11.268Z,-7.67
2022-11-30T05:42:41.314Z,-7.72
2022-11-30T05:45:11.768Z,-7.69
2022-11-30T05:47:39.323Z,-7.67
2022-11-30T05:50:07.542Z,-7.64
2022-11-30T05:52:35.157Z,-7.50
2022-11-30T05:55:02.590Z,-7.44
2022-11-30T05:57:30.763Z,-7.46
2022-11-30T05:59:58.219Z,-7.34
2022-11-30T06:02:28.340Z,-7.28
2022-11-30T06:04:56.239Z,-7.21
2022-11-30T06:07:23.785Z,-7.14
2022-11-30T06:09:51.470Z,-7.06
2022-11-30T06:12:18.941Z,-6.98
2022-11-30T06:14:49.153Z,-6.88
2022-11-30T06:17:17.374Z,-6.83
2022-11-30T06:19:44.879Z,-6.72
2022-11-30T06:22:12.422Z,-6.77
2022-11-30T06:24:39.927Z,-6.81
2022-11-30T06:27:07.364Z,-6.76
2022-11-30T06:29:35.255Z,-6.73
2022-11-30T06:32:02.896Z,-6.73
2022-11-30T06:34:32.391Z,-6.60
2022-11-30T06:36:59.900Z,-6.43
2022-11-30T06:39:57.896Z,-6.10
2022-11-30T06:42:15.001Z,-5.81
2022-11-30T06:44:42.522Z,-5.57
2022-11-30T06:47:10.053Z,-5.44
2022-11-30T06:49:37.745Z,-5.20
2022-11-30T06:52:05.391Z,-4.97
2022-11-30T06:54:32.836Z,-4.77
2022-11-30T06:57:01.407Z,-4.59
2022-11-30T06:59:29.501Z,-4.47
2022-11-30T07:01:57.133Z,-4.28
2022-11-30T07:04:24.712Z,-4.11
2022-11-30T07:06:52.279Z,-4.10
2022-11-30T07:09:19.918Z,-4.11
2022-11-30T07:11:47.391Z,-4.06
2022-11-30T07:14:14.959Z,-3.92
2022-11-30T07:16:42.435Z,-3.93
2022-11-30T07:19:09.957Z,-3.82
2022-11-30T07:21:37.407Z,-3.71
2022-11-30T07:24:23.575Z,-3.68
2022-11-30T07:26:51.163Z,-3.68
2022-11-30T07:29:26.090Z,-3.61
2022-11-30T07:31:54.725Z,-3.53
2022-11-30T07:34:22.928Z,-3.61
2022-11-30T07:36:50.335Z,-3.68
2022-11-30T07:39:17.790Z,-3.58
2022-11-30T07:41:45.263Z,-3.61
2022-11-30T07:44:12.706Z,-3.47
2022-11-30T07:46:40.175Z,-3.43
2022-11-30T07:49:09.669Z,-3.41
2022-11-30T07:51:37.782Z,-3.90
2022-11-30T07:54:05.504Z,-4.30
2022-11-30T07:56:33.220Z,-4.64
2022-11-30T07:59:02.000Z,-4.77
2022-11-30T08:01:32.460Z,-4.85
2022-11-30T08:04:00.478Z,-4.92
2022-11-30T08:06:30.657Z,-4.90
2022-11-30T08:09:01.313Z,-4.83
2022-11-30T08:11:31.193Z,-4.82
2022-11-30T08:13:58.985Z,-4.83
2022-11-30T08:16:28.694Z,-4.82
2022-11-30T08:18:57.049Z,-4.82
2022-11-30T08:21:25.096Z,-4.85
2022-11-30T08:23:56.533Z,-4.92
2022-11-30T08:26:27.695Z,-4.92
2022-11-30T08:28:55.678Z,-4.88
2022-11-30T08:31:31.675Z,-4.93
2022-11-30T08:34:07.603Z,-5.05
2022-11-30T08:36:35.264Z,-5.12
2022-11-30T08:39:05.233Z,-5.10
2022-11-30T08:41:34.950Z,-5.12
2022-11-30T08:44:02.455Z,-5.11
2022-11-30T08:49:22.536Z,-5.11
2022-11-30T08:52:17.022Z,-5.03
2022-11-30T08:54:46.405Z,-4.94
2022-11-30T08:57:19.705Z,-4.79
2022-11-30T08:59:47.829Z,-4.68
2022-11-30T09:02:18.231Z,-4.59
2022-11-30T09:04:49.294Z,-4.69
2022-11-30T09:07:17.883Z,-4.88
2022-11-30T09:09:45.819Z,-4.82
2022-11-30T09:12:15.840Z,-4.70
2022-11-30T09:14:45.193Z,-4.65
2022-11-30T09:17:12.925Z,-4.58
2022-11-30T09:19:40.446Z,-4.61
2022-11-30T09:22:08.009Z,-4.53
2022-11-30T09:24:35.604Z,-4.54
2022-11-30T09:27:03.065Z,-4.62
2022-11-30T09:29:30.606Z,-4.68
2022-11-30T09:31:58.336Z,-4.63
2022-11-30T09:34:26.103Z,-4.56
2022-11-30T09:36:53.618Z,-4.62
2022-11-30T09:39:21.184Z,-4.71
2022-11-30T09:42:07.079Z,-4.69
2022-11-30T09:44:43.577Z,-4.78
2022-11-30T09:47:45.271Z,-4.80
2022-11-30T09:50:20.655Z,-4.90
2022-11-30T09:53:01.409Z,-4.94
2022-11-30T09:55:34.013Z,-4.98
2022-11-30T09:58:05.687Z,-4.98
2022-11-30T10:00:34.984Z,-4.92
2022-11-30T10:03:06.161Z,-4.88
2022-11-30T10:05:51.464Z,-4.80
2022-11-30T10:08:33.573Z,-4.76
2022-11-30T10:11:25.628Z,-4.72
2022-11-30T10:14:00.863Z,-4.71
2022-11-30T10:16:47.205Z,-4.55
2022-11-30T10:19:33.463Z,-4.50
2022-11-30T10:22:13.216Z,-4.33
2022-11-30T10:25:18.241Z,-4.20
2022-11-30T10:28:38.589Z,-4.20
2022-11-30T10:31:01.604Z,-4.18
2022-11-30T10:33:38.785Z,-4.11
2022-11-30T10:36:30.301Z,-4.07
2022-11-30T10:39:02.296Z,-4.04
2022-11-30T10:41:48.520Z,-3.98
2022-11-30T10:44:27.124Z,-3.93
2022-11-30T10:47:15.673Z,-3.84
2022-11-30T10:49:48.830Z,-3.86
2022-11-30T10:52:27.275Z,-3.79
2022-11-30T10:55:02.205Z,-3.76
2022-11-30T10:57:33.249Z,-3.70
2022-11-30T11:00:05.801Z,-3.63
2022-11-30T11:02:50.417Z,-3.64
2022-11-30T11:05:18.217Z,-3.64
2022-11-30T11:08:19.656Z,-3.48
2022-11-30T11:10:52.215Z,-3.54
2022-11-30T11:13:41.477Z,-3.43
2022-11-30T11:16:11.693Z,-3.42
2022-11-30T11:18:57.928Z,-3.25
2022-11-30T11:21:25.482Z,-3.23
2022-11-30T11:23:55.976Z,-3.18
2022-11-30T11:26:28.641Z,-3.13
2022-11-30T11:28:59.680Z,-3.06
2022-11-30T11:31:42.353Z,-2.99
2022-11-30T11:34:31.823Z,-3.00
2022-11-30T11:37:20.384Z,-3.03
2022-11-30T11:40:09.567Z,-3.18
2022-11-30T11:42:45.523Z,-3.28
2022-11-30T11:45:20.158Z,-3.31
2022-11-30T11:48:11.772Z,-3.41
2022-11-30T11:53:46.073Z,-3.32
2022-11-30T11:56:29.407Z,-3.32
2022-11-30T11:59:01.814Z,-3.38
2022-11-30T12:01:50.951Z,-3.20
2022-11-30T12:04:31.958Z,-3.25
2022-11-30T12:07:04.897Z,-3.33
2022-11-30T12:09:39.713Z,-3.38
2022-11-30T12:12:13.310Z,-3.52
2022-11-30T12:14:40.852Z,-3.66
2022-11-30T12:17:35.524Z,-3.75
2022-11-30T12:20:18.378Z,-3.93
2022-11-30T12:22:54.816Z,-4.08
2022-11-30T12:25:50.150Z,-4.14
2022-11-30T12:28:28.114Z,-4.26
2022-11-30T12:31:15.682Z,-4.26
2022-11-30T12:33:57.298Z,-4.33
2022-11-30T12:36:39.646Z,-4.48
2022-11-30T12:39:16.270Z,-4.68
2022-11-30T12:42:03.243Z,-4.79
2022-11-30T12:44:45.527Z,-4.89
2022-11-30T12:47:39.930Z,-4.94
2022-11-30T12:50:40.648Z,-4.99
2022-11-30T12:53:37.700Z,-5.01
2022-11-30T12:56:28.308Z,-5.04
2022-11-30T12:59:28.076Z,-5.15
2022-11-30T13:02:17.316Z,-5.30
2022-11-30T13:04:58.791Z,-5.34
2022-11-30T13:07:34.816Z,-5.31
2022-11-30T13:10:27.858Z,-5.23
2022-11-30T13:13:02.456Z,-5.44
2022-11-30T13:15:34.331Z,-5.48
2022-11-30T13:18:03.501Z,-5.49
2022-11-30T13:20:46.821Z,-5.47
2022-11-30T13:23:21.310Z,-5.51
2022-11-30T13:26:11.743Z,-5.52
2022-11-30T13:28:42.282Z,-5.58
2022-11-30T13:31:21.950Z,-5.60
2022-11-30T13:33:58.375Z,-5.68
2022-11-30T13:36:48.256Z,-5.66
2022-11-30T13:39:16.517Z,-5.75
2022-11-30T13:41:50.708Z,-5.74
2022-11-30T13:44:34.268Z,-5.70
2022-11-30T13:47:04.642Z,-5.66
2022-11-30T13:49:36.877Z,-5.57
2022-11-30T13:52:23.174Z,-5.57
2022-11-30T13:54:57.378Z,-5.57
2022-11-30T13:57:24.871Z,-5.56
2022-11-30T14:00:03.997Z,-5.57
2022-11-30T14:02:32.603Z,-5.59
2022-11-30T14:05:18.330Z,-5.50
2022-11-30T14:08:07.090Z,-5.64
2022-11-30T14:10:38.198Z,-5.66
2022-11-30T14:13:29.684Z,-5.67
2022-11-30T14:16:00.831Z,-5.81
2022-11-30T14:18:39.933Z,-5.79
2022-11-30T14:21:26.584Z,-5.84
2022-11-30T14:23:59.731Z,-5.89
2022-11-30T14:26:44.062Z,-5.96
2022-11-30T14:29:27.670Z,-5.99
2022-11-30T14:32:28.540Z,-5.93
2022-11-30T14:35:05.902Z,-6.03
2022-11-30T14:37:40.919Z,-6.13
2022-11-30T14:40:18.460Z,-6.19
2022-11-30T14:42:51.699Z,-6.16
2022-11-30T14:45:21.794Z,-6.16
2022-11-30T14:47:55.818Z,-6.17
2022-11-30T14:50:26.109Z,-6.29
2022-11-30T14:53:13.360Z,-6.28
2022-11-30T14:55:46.551Z,-6.31
2022-11-30T14:58:45.568Z,-6.37
2022-11-30T15:01:43.125Z,-6.33
2022-11-30T15:04:20.723Z,-6.51
2022-11-30T15:06:53.001Z,-6.57
2022-11-30T15:09:30.935Z,-6.61
2022-11-30T15:12:00.337Z,-6.57
2022-11-30T15:14:31.406Z,-6.50
2022-11-30T15:17:00.460Z,-6.53
2022-11-30T15:19:35.386Z,-6.59
2022-11-30T15:22:03.238Z,-6.59
2022-11-30T15:24:30.781Z,-6.56
2022-11-30T15:27:10.975Z,-6.53
2022-11-30T15:29:57.715Z,-6.49
2022-11-30T15:32:26.273Z,-6.56
2022-11-30T15:35:00.943Z,-6.46
2022-11-30T15:37:33.826Z,-6.46
2022-11-30T15:40:03.457Z,-6.43
2022-11-30T15:42:44.098Z,-6.40
2022-11-30T15:45:30.473Z,-6.34
2022-11-30T15:48:00.315Z,-6.49
2022-11-30T15:50:31.174Z,-6.60
2022-11-30T15:53:01.172Z,-6.66
2022-11-30T15:55:48.720Z,-6.57
2022-11-30T15:58:46.101Z,-6.65
2022-11-30T16:01:20.801Z,-6.64
2022-11-30T16:04:02.368Z,-6.67
2022-11-30T16:06:32.713Z,-6.73
2022-11-30T16:09:19.301Z,-6.67
2022-11-30T16:11:50.379Z,-6.78
2022-11-30T16:14:18.179Z,-6.75
2022-11-30T16:16:46.340Z,-6.76
2022-11-30T16:19:14.031Z,-6.78
2022-11-30T16:21:41.872Z,-6.79
2022-11-30T16:24:16.084Z,-6.75
2022-11-30T16:26:50.910Z,-6.73
2022-11-30T16:29:18.969Z,-6.70
2022-11-30T16:31:46.586Z,-6.71
2022-11-30T16:34:14.293Z,-6.75
2022-11-30T16:36:41.782Z,-6.62
2022-11-30T16:39:12.375Z,-6.56
2022-11-30T16:41:43.395Z,-6.55
2022-11-30T16:44:14.677Z,-6.51
2022-11-30T16:46:42.323Z,-6.46
2022-11-30T16:49:09.964Z,-6.52
2022-11-30T16:51:37.630Z,-6.52
2022-11-30T16:54:05.402Z,-6.52
2022-11-30T16:56:33.406Z,-6.52
2022-11-30T16:59:01.064Z,-6.54
2022-11-30T17:01:35.538Z,-6.55
2022-11-30T17:04:21.514Z,-6.54
2022-11-30T17:06:51.304Z,-6.64
2022-11-30T17:09:21.479Z,-6.74
2022-11-30T17:11:50.922Z,-6.74
2022-11-30T17:14:19.858Z,-6.75
2022-11-30T17:16:47.672Z,-6.70
2022-11-30T17:19:15.348Z,-6.63
2022-11-30T17:21:44.801Z,-6.59
2022-11-30T17:24:13.294Z,-6.56
2022-11-30T17:26:40.893Z,-6.55
2022-11-30T17:29:08.485Z,-6.54
2022-11-30T17:31:36.987Z,-6.60
2022-11-30T17:34:04.478Z,-6.58
2022-11-30T17:36:32.097Z,-6.50
2022-11-30T17:38:59.692Z,-6.56
2022-11-30T17:41:27.173Z,-6.55
2022-11-30T17:43:54.867Z,-6.56
2022-11-30T17:46:22.676Z,-6.58
2022-11-30T17:48:50.573Z,-6.61
2022-11-30T17:51:18.098Z,-6.68
2022-11-30T17:53:48.074Z,-6.76
2022-11-30T17:56:17.508Z,-6.77
2022-11-30T17:58:46.298Z,-6.74
2022-11-30T18:01:30.135Z,-6.74
2022-11-30T18:03:59.116Z,-6.76
2022-11-30T18:06:26.902Z,-6.82
2022-11-30T18:08:54.471Z,-6.90
2022-11-30T18:11:24.012Z,-6.88
2022-11-30T18:13:54.446Z,-6.95
2022-11-30T18:16:27.730Z,-6.98
2022-11-30T18:18:57.480Z,-7.01
2022-11-30T18:21:28.383Z,-6.82
2022-11-30T18:23:57.838Z,-6.80
2022-11-30T18:26:26.833Z,-6.84
2022-11-30T18:28:56.768Z,-6.91
2022-11-30T18:31:24.975Z,-6.95
2022-11-30T18:33:56.606Z,-7.00
2022-11-30T18:36:24.580Z,-7.11
2022-11-30T18:38:52.156Z,-7.08
2022-11-30T18:41:20.120Z,-7.12
2022-11-30T18:43:47.743Z,-7.10
2022-11-30T18:46:15.362Z,-7.17
2022-11-30T18:48:43.110Z,-7.22
2022-11-30T18:51:22.976Z,-7.18
2022-11-30T18:53:57.717Z,-7.21
2022-11-30T18:56:27.103Z,-7.28
2022-11-30T18:59:06.662Z,-7.28
2022-11-30T19:01:35.712Z,-7.24
2022-11-30T19:04:06.003Z,-7.26
2022-11-30T19:06:34.658Z,-7.32
2022-11-30T19:09:05.839Z,-7.26
2022-11-30T19:11:33.884Z,-7.24
2022-11-30T19:14:02.089Z,-7.29
2022-11-30T19:16:31.378Z,-7.30
2022-11-30T19:19:02.164Z,-7.33
2022-11-30T19:21:29.733Z,-7.35
2022-11-30T19:23:57.588Z,-7.31
2022-11-30T19:26:28.006Z,-7.33
2022-11-30T19:28:57.152Z,-7.27
2022-11-30T19:31:25.504Z,-7.24
2022-11-30T19:33:55.850Z,-7.22
2022-11-30T19:36:26.183Z,-7.18
2022-11-30T19:38:54.818Z,-7.22
2022-11-30T19:41:22.607Z,-7.15
2022-11-30T19:44:04.110Z,-7.07
2022-11-30T19:46:34.726Z,-7.08
2022-11-30T19:49:02.566Z,-7.04
2022-11-30T19:51:31.294Z,-6.98
2022-11-30T19:54:01.924Z,-6.96
2022-11-30T19:56:32.346Z,-6.93
2022-11-30T19:59:05.059Z,-6.95
2022-11-30T20:01:34.509Z,-6.93
2022-11-30T20:04:03.230Z,-7.00
2022-11-30T20:06:34.352Z,-7.02
2022-11-30T20:09:03.823Z,-7.07
2022-11-30T20:11:31.702Z,-7.03
2022-11-30T20:14:00.432Z,-7.04
2022-11-30T20:16:28.333Z,-7.05
2022-11-30T20:19:00.897Z,-7.06
2022-11-30T20:21:34.382Z,-7.04
2022-11-30T20:24:06.234Z,-7.02
2022-11-30T20:26:39.869Z,-7.02
2022-11-30T20:29:11.960Z,-7.04
2022-11-30T20:31:39.741Z,-7.05
2022-11-30T20:34:08.285Z,-7.06
2022-11-30T20:36:36.232Z,-7.06
2022-11-30T20:39:04.792Z,-7.16
2022-11-30T20:41:34.051Z,-7.25
2022-11-30T20:44:01.795Z,-7.27
2022-11-30T20:46:32.149Z,-7.35
2022-11-30T20:49:00.752Z,-7.42
2022-11-30T20:51:32.436Z,-7.39
2022-11-30T20:54:02.724Z,-7.43
2022-11-30T20:56:30.353Z,-7.50
2022-11-30T20:59:01.646Z,-7.44
2022-11-30T21:01:29.477Z,-7.43
2022-11-30T21:04:01.011Z,-7.35
2022-11-30T21:06:30.199Z,-7.34
2022-11-30T21:08:58.842Z,-7.24
2022-11-30T21:11:27.803Z,-7.19
2022-11-30T21:13:56.526Z,-7.22
2022-11-30T21:16:28.564Z,-7.20
2022-11-30T21:18:59.090Z,-7.19
2022-11-30T21:21:30.923Z,-7.18
2022-11-30T21:24:00.938Z,-7.19
2022-11-30T21:26:34.001Z,-7.17
2022-11-30T21:29:04.853Z,-7.20
2022-11-30T21:31:32.531Z,-7.20
2022-11-30T21:34:00.477Z,-7.29
2022-11-30T21:36:28.630Z,-7.31
2022-11-30T21:39:06.356Z,-7.34
2022-11-30T21:41:38.800Z,-7.40
2022-11-30T21:44:10.543Z,-7.51
2022-11-30T21:46:38.621Z,-7.60
2022-11-30T21:49:06.959Z,-7.63
2022-11-30T21:51:34.613Z,-7.64
2022-11-30T21:54:07.591Z,-7.69
2022-11-30T21:56:37.174Z,-7.77
2022-11-30T21:59:06.760Z,-7.75
2022-11-30T22:01:39.343Z,-7.76
2022-11-30T22:04:08.591Z,-7.86
2022-11-30T22:06:37.763Z,-7.85
2022-11-30T22:09:16.690Z,-7.88
2022-11-30T22:11:45.425Z,-7.90
2022-11-30T22:14:16.071Z,-7.97
2022-11-30T22:16:44.532Z,-7.97
2022-11-30T22:19:12.051Z,-7.99
2022-11-30T22:21:39.882Z,-7.97
2022-11-30T22:24:11.239Z,-7.93
2022-11-30T22:26:39.873Z,-7.90
2022-11-30T22:29:16.573Z,-7.91
2022-11-30T22:31:46.233Z,-7.95
2022-11-30T22:34:14.241Z,-7.95
2022-11-30T22:36:43.233Z,-8.02
2022-11-30T22:39:19.730Z,-8.09
2022-11-30T22:41:54.668Z,-8.16
2022-11-30T22:44:24.310Z,-8.21
2022-11-30T22:46:51.974Z,-8.25
2022-11-30T22:49:21.544Z,-8.26
2022-11-30T22:51:50.643Z,-8.22
2022-11-30T22:54:18.948Z,-8.21
2022-11-30T22:56:46.897Z,-8.24
2022-11-30T22:59:15.357Z,-8.25
2022-11-30T23:01:45.721Z,-8.23
2022-11-30T23:04:16.216Z,-8.23
2022-11-30T23:06:44.723Z,-8.29
2022-11-30T23:09:15.276Z,-8.27
2022-11-30T23:11:43.395Z,-8.30
2022-11-30T23:14:12.268Z,-8.29
2022-11-30T23:16:40.444Z,-8.34
2022-11-30T23:19:10.607Z,-8.31
2022-11-30T23:21:41.993Z,-8.29
2022-11-30T23:24:14.266Z,-8.25
2022-11-30T23:26:43.098Z,-8.27
2022-11-30T23:29:13.773Z,-8.25
2022-11-30T23:31:43.153Z,-8.31
2022-11-30T23:34:16.716Z,-8.21
2022-11-30T23:36:44.218Z,-8.22
2022-11-30T23:39:14.781Z,-8.25
2022-11-30T23:41:42.944Z,-8.19
2022-11-30T23:44:11.489Z,-8.20
2022-11-30T23:46:39.239Z,-8.16
2022-11-30T23:49:07.142Z,-8.19
2022-11-30T23:51:34.673Z,-8.22
2022-11-30T23:54:02.145Z,-8.25
2022-11-30T23:56:29.658Z,-8.23
2022-11-30T23:58:57.096Z,-8.19
